sensor_id;sensor_type;location;lat;lon;timestamp;P1;durP1;ratioP1;P2;durP2;ratioP2
55776;SDS011;54079;44.540;18.784;2022-12-18T00:00:45;11.95;;;8.35;;
55776;SDS011;54079;44.540;18.784;2022-12-18T00:03:14;11.77;;;8.20;;
55776;SDS011;54079;44.540;18.784;2022-12-18T00:05:50;12.82;;;9.30;;
55776;SDS011;54079;44.540;18.784;2022-12-18T00:08:17;11.88;;;7.88;;
55776;SDS011;54079;44.540;18.784;2022-12-18T00:10:45;12.00;;;8.35;;
55776;SDS011;54079;44.540;18.784;2022-12-18T00:13:11;13.20;;;8.15;;
55776;SDS011;54079;44.540;18.784;2022-12-18T00:15:38;13.85;;;8.80;;
55776;SDS011;54079;44.540;18.784;2022-12-18T00:18:04;13.93;;;8.13;;
55776;SDS011;54079;44.540;18.784;2022-12-18T00:20:31;13.40;;;8.93;;
55776;SDS011;54079;44.540;18.784;2022-12-18T00:23:00;13.32;;;9.70;;
55776;SDS011;54079;44.540;18.784;2022-12-18T00:25:26;15.23;;;9.95;;
55776;SDS011;54079;44.540;18.784;2022-12-18T00:27:52;13.73;;;8.57;;
55776;SDS011;54079;44.540;18.784;2022-12-18T00:30:18;14.82;;;8.80;;
55776;SDS011;54079;44.540;18.784;2022-12-18T00:32:44;14.65;;;9.13;;
55776;SDS011;54079;44.540;18.784;2022-12-18T00:35:10;14.02;;;8.85;;
55776;SDS011;54079;44.540;18.784;2022-12-18T00:37:36;12.60;;;8.52;;
55776;SDS011;54079;44.540;18.784;2022-12-18T00:40:02;14.05;;;9.00;;
55776;SDS011;54079;44.540;18.784;2022-12-18T00:42:28;13.77;;;8.32;;
55776;SDS011;54079;44.540;18.784;2022-12-18T00:45:13;12.00;;;8.27;;
55776;SDS011;54079;44.540;18.784;2022-12-18T00:47:39;12.25;;;7.28;;
55776;SDS011;54079;44.540;18.784;2022-12-18T00:50:05;10.20;;;6.82;;
55776;SDS011;54079;44.540;18.784;2022-12-18T00:52:31;12.23;;;7.78;;
55776;SDS011;54079;44.540;18.784;2022-12-18T00:54:57;12.30;;;7.18;;
55776;SDS011;54079;44.540;18.784;2022-12-18T00:57:23;9.77;;;6.65;;
55776;SDS011;54079;44.540;18.784;2022-12-18T00:59:49;12.25;;;7.68;;
55776;SDS011;54079;44.540;18.784;2022-12-18T01:02:15;12.93;;;8.68;;
55776;SDS011;54079;44.540;18.784;2022-12-18T01:04:41;12.02;;;8.50;;
55776;SDS011;54079;44.540;18.784;2022-12-18T01:07:07;10.68;;;7.10;;
55776;SDS011;54079;44.540;18.784;2022-12-18T01:09:33;11.27;;;7.38;;
55776;SDS011;54079;44.540;18.784;2022-12-18T01:11:59;12.02;;;7.93;;
55776;SDS011;54079;44.540;18.784;2022-12-18T01:14:25;12.93;;;8.13;;
55776;SDS011;54079;44.540;18.784;2022-12-18T01:16:51;11.65;;;8.25;;
55776;SDS011;54079;44.540;18.784;2022-12-18T01:19:17;9.20;;;7.00;;
55776;SDS011;54079;44.540;18.784;2022-12-18T01:21:43;12.80;;;8.57;;
55776;SDS011;54079;44.540;18.784;2022-12-18T01:24:09;11.32;;;7.78;;
55776;SDS011;54079;44.540;18.784;2022-12-18T01:26:37;10.32;;;7.07;;
55776;SDS011;54079;44.540;18.784;2022-12-18T01:29:03;10.38;;;6.63;;
55776;SDS011;54079;44.540;18.784;2022-12-18T01:31:30;11.15;;;7.88;;
55776;SDS011;54079;44.540;18.784;2022-12-18T01:33:59;11.88;;;7.13;;
55776;SDS011;54079;44.540;18.784;2022-12-18T01:36:28;11.55;;;7.55;;
55776;SDS011;54079;44.540;18.784;2022-12-18T01:38:58;12.63;;;7.25;;
55776;SDS011;54079;44.540;18.784;2022-12-18T01:41:26;10.35;;;6.97;;
55776;SDS011;54079;44.540;18.784;2022-12-18T01:47:20;11.95;;;7.57;;
55776;SDS011;54079;44.540;18.784;2022-12-18T01:49:47;11.68;;;7.78;;
55776;SDS011;54079;44.540;18.784;2022-12-18T01:52:13;11.68;;;6.90;;
55776;SDS011;54079;44.540;18.784;2022-12-18T01:54:39;12.98;;;7.93;;
55776;SDS011;54079;44.540;18.784;2022-12-18T01:57:06;13.60;;;8.93;;
55776;SDS011;54079;44.540;18.784;2022-12-18T01:59:32;9.93;;;6.95;;
55776;SDS011;54079;44.540;18.784;2022-12-18T02:02:00;13.35;;;7.55;;
55776;SDS011;54079;44.540;18.784;2022-12-18T02:04:27;10.60;;;7.40;;
55776;SDS011;54079;44.540;18.784;2022-12-18T02:07:00;11.95;;;7.75;;
55776;SDS011;54079;44.540;18.784;2022-12-18T02:09:32;11.45;;;7.95;;
55776;SDS011;54079;44.540;18.784;2022-12-18T02:15:15;13.15;;;9.23;;
55776;SDS011;54079;44.540;18.784;2022-12-18T02:17:54;12.20;;;8.18;;
55776;SDS011;54079;44.540;18.784;2022-12-18T02:20:28;11.70;;;7.78;;
55776;SDS011;54079;44.540;18.784;2022-12-18T02:23:12;12.77;;;7.90;;
55776;SDS011;54079;44.540;18.784;2022-12-18T02:26:06;15.23;;;9.32;;
55776;SDS011;54079;44.540;18.784;2022-12-18T02:28:55;12.98;;;7.22;;
55776;SDS011;54079;44.540;18.784;2022-12-18T02:31:28;12.95;;;8.63;;
55776;SDS011;54079;44.540;18.784;2022-12-18T02:33:59;11.13;;;7.43;;
55776;SDS011;54079;44.540;18.784;2022-12-18T02:36:28;13.50;;;8.52;;
55776;SDS011;54079;44.540;18.784;2022-12-18T02:38:56;12.88;;;7.97;;
55776;SDS011;54079;44.540;18.784;2022-12-18T02:41:24;13.70;;;8.65;;
55776;SDS011;54079;44.540;18.784;2022-12-18T02:44:01;13.55;;;8.45;;
55776;SDS011;54079;44.540;18.784;2022-12-18T02:46:35;12.93;;;8.43;;
55776;SDS011;54079;44.540;18.784;2022-12-18T02:49:09;12.95;;;9.02;;
55776;SDS011;54079;44.540;18.784;2022-12-18T02:51:53;12.20;;;8.13;;
55776;SDS011;54079;44.540;18.784;2022-12-18T02:54:38;13.57;;;8.90;;
55776;SDS011;54079;44.540;18.784;2022-12-18T02:57:16;14.77;;;9.02;;
55776;SDS011;54079;44.540;18.784;2022-12-18T03:02:58;14.45;;;9.60;;
55776;SDS011;54079;44.540;18.784;2022-12-18T03:05:30;14.02;;;8.98;;
55776;SDS011;54079;44.540;18.784;2022-12-18T03:08:37;14.13;;;9.48;;
55776;SDS011;54079;44.540;18.784;2022-12-18T03:11:07;14.07;;;9.75;;
55776;SDS011;54079;44.540;18.784;2022-12-18T03:13:36;11.65;;;8.15;;
55776;SDS011;54079;44.540;18.784;2022-12-18T03:16:12;14.52;;;9.77;;
55776;SDS011;54079;44.540;18.784;2022-12-18T03:18:45;13.20;;;8.38;;
55776;SDS011;54079;44.540;18.784;2022-12-18T03:21:17;9.93;;;6.95;;
55776;SDS011;54079;44.540;18.784;2022-12-18T03:23:48;15.63;;;9.45;;
55776;SDS011;54079;44.540;18.784;2022-12-18T03:26:17;11.98;;;7.35;;
55776;SDS011;54079;44.540;18.784;2022-12-18T03:28:50;12.07;;;7.45;;
55776;SDS011;54079;44.540;18.784;2022-12-18T03:31:18;10.63;;;7.88;;
55776;SDS011;54079;44.540;18.784;2022-12-18T03:36:47;10.85;;;7.70;;
55776;SDS011;54079;44.540;18.784;2022-12-18T03:39:13;13.90;;;8.85;;
55776;SDS011;54079;44.540;18.784;2022-12-18T03:47:27;11.18;;;8.20;;
55776;SDS011;54079;44.540;18.784;2022-12-18T03:50:16;10.75;;;7.35;;
55776;SDS011;54079;44.540;18.784;2022-12-18T03:52:49;10.32;;;8.05;;
55776;SDS011;54079;44.540;18.784;2022-12-18T03:55:18;11.27;;;7.80;;
55776;SDS011;54079;44.540;18.784;2022-12-18T03:57:47;11.63;;;7.03;;
55776;SDS011;54079;44.540;18.784;2022-12-18T04:00:15;13.77;;;8.48;;
55776;SDS011;54079;44.540;18.784;2022-12-18T04:02:43;12.35;;;7.82;;
55776;SDS011;54079;44.540;18.784;2022-12-18T04:07:40;11.30;;;6.93;;
55776;SDS011;54079;44.540;18.784;2022-12-18T04:10:08;12.32;;;7.60;;
55776;SDS011;54079;44.540;18.784;2022-12-18T04:12:34;12.40;;;7.68;;
55776;SDS011;54079;44.540;18.784;2022-12-18T04:15:03;12.60;;;7.97;;
55776;SDS011;54079;44.540;18.784;2022-12-18T04:17:29;11.73;;;7.85;;
55776;SDS011;54079;44.540;18.784;2022-12-18T04:19:55;14.27;;;9.73;;
55776;SDS011;54079;44.540;18.784;2022-12-18T04:22:21;12.63;;;7.72;;
55776;SDS011;54079;44.540;18.784;2022-12-18T04:24:46;11.48;;;7.22;;
55776;SDS011;54079;44.540;18.784;2022-12-18T04:27:12;13.73;;;8.40;;
55776;SDS011;54079;44.540;18.784;2022-12-18T04:29:39;13.68;;;8.63;;
55776;SDS011;54079;44.540;18.784;2022-12-18T04:32:05;11.95;;;8.18;;
55776;SDS011;54079;44.540;18.784;2022-12-18T04:34:31;15.02;;;8.73;;
55776;SDS011;54079;44.540;18.784;2022-12-18T04:36:56;14.98;;;8.65;;
55776;SDS011;54079;44.540;18.784;2022-12-18T04:39:22;14.43;;;9.73;;
55776;SDS011;54079;44.540;18.784;2022-12-18T04:41:48;15.20;;;9.32;;
55776;SDS011;54079;44.540;18.784;2022-12-18T04:44:14;13.00;;;8.32;;
55776;SDS011;54079;44.540;18.784;2022-12-18T04:46:40;13.57;;;9.82;;
55776;SDS011;54079;44.540;18.784;2022-12-18T04:49:06;13.80;;;8.23;;
55776;SDS011;54079;44.540;18.784;2022-12-18T04:51:32;13.85;;;8.23;;
55776;SDS011;54079;44.540;18.784;2022-12-18T04:53:57;11.52;;;8.02;;
55776;SDS011;54079;44.540;18.784;2022-12-18T04:56:23;14.43;;;9.52;;
55776;SDS011;54079;44.540;18.784;2022-12-18T04:58:49;12.85;;;8.02;;
55776;SDS011;54079;44.540;18.784;2022-12-18T05:01:16;12.20;;;7.75;;
55776;SDS011;54079;44.540;18.784;2022-12-18T05:03:42;13.05;;;9.15;;
55776;SDS011;54079;44.540;18.784;2022-12-18T05:06:08;13.63;;;9.27;;
55776;SDS011;54079;44.540;18.784;2022-12-18T05:08:35;12.70;;;8.90;;
55776;SDS011;54079;44.540;18.784;2022-12-18T05:11:05;15.40;;;9.45;;
55776;SDS011;54079;44.540;18.784;2022-12-18T05:13:33;14.57;;;10.10;;
55776;SDS011;54079;44.540;18.784;2022-12-18T05:16:00;16.00;;;9.98;;
55776;SDS011;54079;44.540;18.784;2022-12-18T05:18:26;16.55;;;10.20;;
55776;SDS011;54079;44.540;18.784;2022-12-18T05:20:53;14.00;;;10.30;;
55776;SDS011;54079;44.540;18.784;2022-12-18T05:23:20;15.93;;;10.65;;
55776;SDS011;54079;44.540;18.784;2022-12-18T05:25:51;16.25;;;10.88;;
55776;SDS011;54079;44.540;18.784;2022-12-18T05:28:19;17.67;;;11.68;;
55776;SDS011;54079;44.540;18.784;2022-12-18T05:30:53;19.75;;;12.88;;
55776;SDS011;54079;44.540;18.784;2022-12-18T05:33:21;19.88;;;12.88;;
55776;SDS011;54079;44.540;18.784;2022-12-18T05:35:55;17.75;;;11.98;;
55776;SDS011;54079;44.540;18.784;2022-12-18T05:38:23;16.80;;;11.13;;
55776;SDS011;54079;44.540;18.784;2022-12-18T05:40:51;20.30;;;12.75;;
55776;SDS011;54079;44.540;18.784;2022-12-18T05:43:17;19.00;;;11.95;;
55776;SDS011;54079;44.540;18.784;2022-12-18T05:45:44;18.77;;;12.45;;
55776;SDS011;54079;44.540;18.784;2022-12-18T05:48:10;20.65;;;12.77;;
55776;SDS011;54079;44.540;18.784;2022-12-18T05:50:38;19.77;;;12.15;;
55776;SDS011;54079;44.540;18.784;2022-12-18T05:53:06;16.73;;;11.35;;
55776;SDS011;54079;44.540;18.784;2022-12-18T05:55:33;17.90;;;12.15;;
55776;SDS011;54079;44.540;18.784;2022-12-18T05:57:59;18.08;;;11.70;;
55776;SDS011;54079;44.540;18.784;2022-12-18T06:00:25;19.35;;;12.65;;
55776;SDS011;54079;44.540;18.784;2022-12-18T06:02:51;20.30;;;11.98;;
55776;SDS011;54079;44.540;18.784;2022-12-18T06:05:17;20.08;;;12.23;;
55776;SDS011;54079;44.540;18.784;2022-12-18T06:07:43;19.38;;;12.07;;
55776;SDS011;54079;44.540;18.784;2022-12-18T06:10:09;20.58;;;12.93;;
55776;SDS011;54079;44.540;18.784;2022-12-18T06:12:36;18.20;;;11.90;;
55776;SDS011;54079;44.540;18.784;2022-12-18T06:15:02;17.65;;;12.52;;
55776;SDS011;54079;44.540;18.784;2022-12-18T06:17:29;21.20;;;13.75;;
55776;SDS011;54079;44.540;18.784;2022-12-18T06:19:56;18.45;;;12.45;;
55776;SDS011;54079;44.540;18.784;2022-12-18T06:22:23;19.42;;;12.68;;
55776;SDS011;54079;44.540;18.784;2022-12-18T06:24:48;15.82;;;11.30;;
55776;SDS011;54079;44.540;18.784;2022-12-18T06:27:14;20.15;;;12.95;;
55776;SDS011;54079;44.540;18.784;2022-12-18T06:29:40;19.40;;;12.20;;
55776;SDS011;54079;44.540;18.784;2022-12-18T06:32:06;19.05;;;12.10;;
55776;SDS011;54079;44.540;18.784;2022-12-18T06:34:32;19.45;;;12.00;;
55776;SDS011;54079;44.540;18.784;2022-12-18T06:36:58;19.92;;;12.65;;
55776;SDS011;54079;44.540;18.784;2022-12-18T06:39:24;26.70;;;13.52;;
55776;SDS011;54079;44.540;18.784;2022-12-18T06:41:52;26.40;;;14.65;;
55776;SDS011;54079;44.540;18.784;2022-12-18T06:44:18;22.48;;;13.57;;
55776;SDS011;54079;44.540;18.784;2022-12-18T06:46:44;20.55;;;13.10;;
55776;SDS011;54079;44.540;18.784;2022-12-18T06:49:10;23.65;;;14.35;;
55776;SDS011;54079;44.540;18.784;2022-12-18T06:51:36;21.73;;;13.43;;
55776;SDS011;54079;44.540;18.784;2022-12-18T06:54:02;20.73;;;14.40;;
55776;SDS011;54079;44.540;18.784;2022-12-18T06:56:28;22.77;;;14.57;;
55776;SDS011;54079;44.540;18.784;2022-12-18T06:58:55;23.48;;;14.80;;
55776;SDS011;54079;44.540;18.784;2022-12-18T07:01:21;24.58;;;15.25;;
55776;SDS011;54079;44.540;18.784;2022-12-18T07:03:51;21.65;;;15.18;;
55776;SDS011;54079;44.540;18.784;2022-12-18T07:06:20;22.83;;;14.35;;
55776;SDS011;54079;44.540;18.784;2022-12-18T07:08:47;20.50;;;13.88;;
55776;SDS011;54079;44.540;18.784;2022-12-18T07:11:14;19.75;;;12.93;;
55776;SDS011;54079;44.540;18.784;2022-12-18T07:13:41;26.45;;;15.45;;
55776;SDS011;54079;44.540;18.784;2022-12-18T07:16:07;21.92;;;13.80;;
55776;SDS011;54079;44.540;18.784;2022-12-18T07:18:35;21.90;;;13.32;;
55776;SDS011;54079;44.540;18.784;2022-12-18T07:21:09;20.67;;;12.43;;
55776;SDS011;54079;44.540;18.784;2022-12-18T07:23:39;21.08;;;13.20;;
55776;SDS011;54079;44.540;18.784;2022-12-18T07:26:06;19.25;;;11.52;;
55776;SDS011;54079;44.540;18.784;2022-12-18T07:28:35;20.83;;;13.25;;
55776;SDS011;54079;44.540;18.784;2022-12-18T07:31:05;19.88;;;12.88;;
55776;SDS011;54079;44.540;18.784;2022-12-18T07:33:32;18.70;;;12.85;;
55776;SDS011;54079;44.540;18.784;2022-12-18T07:36:05;26.92;;;15.55;;
55776;SDS011;54079;44.540;18.784;2022-12-18T07:38:33;18.23;;;12.65;;
55776;SDS011;54079;44.540;18.784;2022-12-18T07:41:00;20.70;;;12.50;;
55776;SDS011;54079;44.540;18.784;2022-12-18T07:43:31;21.05;;;13.38;;
55776;SDS011;54079;44.540;18.784;2022-12-18T07:45:57;23.33;;;13.85;;
55776;SDS011;54079;44.540;18.784;2022-12-18T07:48:23;18.95;;;11.93;;
55776;SDS011;54079;44.540;18.784;2022-12-18T07:50:49;21.42;;;14.10;;
55776;SDS011;54079;44.540;18.784;2022-12-18T07:53:15;18.90;;;12.35;;
55776;SDS011;54079;44.540;18.784;2022-12-18T07:55:41;20.73;;;12.95;;
55776;SDS011;54079;44.540;18.784;2022-12-18T07:58:07;19.77;;;12.35;;
55776;SDS011;54079;44.540;18.784;2022-12-18T08:00:34;21.23;;;11.93;;
55776;SDS011;54079;44.540;18.784;2022-12-18T08:03:00;18.20;;;11.18;;
55776;SDS011;54079;44.540;18.784;2022-12-18T08:05:26;23.13;;;13.52;;
55776;SDS011;54079;44.540;18.784;2022-12-18T08:07:52;21.40;;;13.65;;
55776;SDS011;54079;44.540;18.784;2022-12-18T08:10:19;20.17;;;13.27;;
55776;SDS011;54079;44.540;18.784;2022-12-18T08:12:48;22.13;;;13.98;;
55776;SDS011;54079;44.540;18.784;2022-12-18T08:15:14;22.13;;;12.15;;
55776;SDS011;54079;44.540;18.784;2022-12-18T08:17:40;21.65;;;12.90;;
55776;SDS011;54079;44.540;18.784;2022-12-18T08:20:06;20.20;;;12.88;;
55776;SDS011;54079;44.540;18.784;2022-12-18T08:22:34;21.98;;;13.23;;
55776;SDS011;54079;44.540;18.784;2022-12-18T08:25:00;18.83;;;11.75;;
55776;SDS011;54079;44.540;18.784;2022-12-18T08:27:27;20.02;;;12.90;;
55776;SDS011;54079;44.540;18.784;2022-12-18T08:29:53;20.30;;;13.57;;
55776;SDS011;54079;44.540;18.784;2022-12-18T08:32:19;19.92;;;12.15;;
55776;SDS011;54079;44.540;18.784;2022-12-18T08:34:45;20.48;;;13.20;;
55776;SDS011;54079;44.540;18.784;2022-12-18T08:37:12;19.38;;;11.82;;
55776;SDS011;54079;44.540;18.784;2022-12-18T08:39:38;16.55;;;11.63;;
55776;SDS011;54079;44.540;18.784;2022-12-18T08:42:03;13.75;;;10.13;;
55776;SDS011;54079;44.540;18.784;2022-12-18T08:44:48;14.85;;;10.30;;
55776;SDS011;54079;44.540;18.784;2022-12-18T08:47:14;14.10;;;10.75;;
55776;SDS011;54079;44.540;18.784;2022-12-18T08:49:40;18.13;;;11.73;;
55776;SDS011;54079;44.540;18.784;2022-12-18T08:52:05;13.77;;;9.55;;
55776;SDS011;54079;44.540;18.784;2022-12-18T08:54:31;11.02;;;7.55;;
55776;SDS011;54079;44.540;18.784;2022-12-18T08:56:57;11.18;;;8.10;;
55776;SDS011;54079;44.540;18.784;2022-12-18T08:59:23;11.80;;;7.93;;
55776;SDS011;54079;44.540;18.784;2022-12-18T09:01:49;10.80;;;7.93;;
55776;SDS011;54079;44.540;18.784;2022-12-18T09:04:15;14.90;;;10.98;;
55776;SDS011;54079;44.540;18.784;2022-12-18T09:06:41;12.90;;;9.25;;
55776;SDS011;54079;44.540;18.784;2022-12-18T09:09:09;11.88;;;8.27;;
55776;SDS011;54079;44.540;18.784;2022-12-18T09:11:35;12.73;;;8.55;;
55776;SDS011;54079;44.540;18.784;2022-12-18T09:14:01;14.13;;;10.38;;
55776;SDS011;54079;44.540;18.784;2022-12-18T09:16:28;11.13;;;8.20;;
55776;SDS011;54079;44.540;18.784;2022-12-18T09:18:55;12.27;;;9.10;;
55776;SDS011;54079;44.540;18.784;2022-12-18T09:21:25;10.23;;;8.05;;
55776;SDS011;54079;44.540;18.784;2022-12-18T09:23:53;12.20;;;9.57;;
55776;SDS011;54079;44.540;18.784;2022-12-18T09:26:20;12.65;;;9.07;;
55776;SDS011;54079;44.540;18.784;2022-12-18T09:28:47;11.70;;;9.20;;
55776;SDS011;54079;44.540;18.784;2022-12-18T09:31:15;11.02;;;8.20;;
55776;SDS011;54079;44.540;18.784;2022-12-18T09:33:41;14.73;;;10.13;;
55776;SDS011;54079;44.540;18.784;2022-12-18T09:36:08;12.18;;;8.60;;
55776;SDS011;54079;44.540;18.784;2022-12-18T09:38:36;11.50;;;7.95;;
55776;SDS011;54079;44.540;18.784;2022-12-18T09:41:13;12.27;;;8.48;;
55776;SDS011;54079;44.540;18.784;2022-12-18T09:43:51;14.30;;;9.52;;
55776;SDS011;54079;44.540;18.784;2022-12-18T09:46:23;12.32;;;9.07;;
55776;SDS011;54079;44.540;18.784;2022-12-18T09:49:02;12.95;;;8.82;;
55776;SDS011;54079;44.540;18.784;2022-12-18T09:51:36;14.20;;;9.95;;
55776;SDS011;54079;44.540;18.784;2022-12-18T09:54:18;14.27;;;9.65;;
55776;SDS011;54079;44.540;18.784;2022-12-18T09:56:47;13.07;;;9.07;;
55776;SDS011;54079;44.540;18.784;2022-12-18T09:59:18;12.73;;;9.73;;
55776;SDS011;54079;44.540;18.784;2022-12-18T10:01:50;13.85;;;9.50;;
55776;SDS011;54079;44.540;18.784;2022-12-18T10:04:16;16.70;;;11.18;;
55776;SDS011;54079;44.540;18.784;2022-12-18T10:06:47;13.93;;;9.70;;
55776;SDS011;54079;44.540;18.784;2022-12-18T10:14:57;13.25;;;9.73;;
55776;SDS011;54079;44.540;18.784;2022-12-18T10:17:39;11.38;;;9.00;;
55776;SDS011;54079;44.540;18.784;2022-12-18T10:28:13;14.93;;;10.70;;
55776;SDS011;54079;44.540;18.784;2022-12-18T10:30:40;15.82;;;11.23;;
55776;SDS011;54079;44.540;18.784;2022-12-18T10:33:10;18.25;;;12.30;;
55776;SDS011;54079;44.540;18.784;2022-12-18T10:35:41;17.73;;;12.02;;
55776;SDS011;54079;44.540;18.784;2022-12-18T10:46:46;18.42;;;13.27;;
55776;SDS011;54079;44.540;18.784;2022-12-18T10:49:25;19.08;;;12.85;;
55776;SDS011;54079;44.540;18.784;2022-12-18T10:54:45;15.98;;;11.57;;
55776;SDS011;54079;44.540;18.784;2022-12-18T11:02:49;18.00;;;12.55;;
55776;SDS011;54079;44.540;18.784;2022-12-18T11:07:56;17.35;;;11.30;;
55776;SDS011;54079;44.540;18.784;2022-12-18T11:10:33;17.92;;;12.30;;
55776;SDS011;54079;44.540;18.784;2022-12-18T11:13:09;18.10;;;11.60;;
55776;SDS011;54079;44.540;18.784;2022-12-18T11:15:36;21.10;;;13.07;;
55776;SDS011;54079;44.540;18.784;2022-12-18T11:18:13;18.85;;;12.98;;
55776;SDS011;54079;44.540;18.784;2022-12-18T11:21:08;18.83;;;12.48;;
55776;SDS011;54079;44.540;18.784;2022-12-18T11:23:36;16.33;;;11.68;;
55776;SDS011;54079;44.540;18.784;2022-12-18T11:26:10;17.40;;;12.05;;
55776;SDS011;54079;44.540;18.784;2022-12-18T11:28:52;15.55;;;11.60;;
55776;SDS011;54079;44.540;18.784;2022-12-18T11:31:32;17.42;;;10.40;;
55776;SDS011;54079;44.540;18.784;2022-12-18T11:34:09;13.98;;;9.70;;
55776;SDS011;54079;44.540;18.784;2022-12-18T11:36:45;15.40;;;9.50;;
55776;SDS011;54079;44.540;18.784;2022-12-18T11:39:19;13.50;;;9.10;;
55776;SDS011;54079;44.540;18.784;2022-12-18T11:47:37;14.75;;;9.43;;
55776;SDS011;54079;44.540;18.784;2022-12-18T11:50:12;13.57;;;9.85;;
55776;SDS011;54079;44.540;18.784;2022-12-18T11:52:44;12.82;;;8.77;;
55776;SDS011;54079;44.540;18.784;2022-12-18T12:00:18;13.27;;;8.60;;
55776;SDS011;54079;44.540;18.784;2022-12-18T12:05:38;15.13;;;9.73;;
55776;SDS011;54079;44.540;18.784;2022-12-18T12:16:50;11.88;;;8.15;;
55776;SDS011;54079;44.540;18.784;2022-12-18T12:19:46;16.27;;;10.70;;
55776;SDS011;54079;44.540;18.784;2022-12-18T12:25:02;15.98;;;10.43;;
55776;SDS011;54079;44.540;18.784;2022-12-18T12:32:59;15.98;;;9.90;;
55776;SDS011;54079;44.540;18.784;2022-12-18T12:38:19;16.40;;;11.73;;
55776;SDS011;54079;44.540;18.784;2022-12-18T12:41:12;14.20;;;9.82;;
55776;SDS011;54079;44.540;18.784;2022-12-18T12:44:01;14.10;;;8.20;;
55776;SDS011;54079;44.540;18.784;2022-12-18T12:46:31;13.82;;;8.63;;
55776;SDS011;54079;44.540;18.784;2022-12-18T12:49:03;11.98;;;8.60;;
55776;SDS011;54079;44.540;18.784;2022-12-18T12:54:33;14.70;;;9.43;;
55776;SDS011;54079;44.540;18.784;2022-12-18T12:57:11;16.60;;;10.52;;
55776;SDS011;54079;44.540;18.784;2022-12-18T13:02:25;16.42;;;10.02;;
55776;SDS011;54079;44.540;18.784;2022-12-18T13:05:21;15.93;;;9.52;;
55776;SDS011;54079;44.540;18.784;2022-12-18T13:10:56;14.85;;;9.55;;
55776;SDS011;54079;44.540;18.784;2022-12-18T13:13:54;13.27;;;8.50;;
55776;SDS011;54079;44.540;18.784;2022-12-18T13:16:24;14.60;;;10.13;;
55776;SDS011;54079;44.540;18.784;2022-12-18T13:18:54;15.30;;;9.55;;
55776;SDS011;54079;44.540;18.784;2022-12-18T13:21:30;13.38;;;9.45;;
55776;SDS011;54079;44.540;18.784;2022-12-18T13:24:43;15.88;;;9.50;;
55776;SDS011;54079;44.540;18.784;2022-12-18T13:26:52;16.42;;;10.13;;
55776;SDS011;54079;44.540;18.784;2022-12-18T13:32:21;17.92;;;11.63;;
55776;SDS011;54079;44.540;18.784;2022-12-18T13:37:43;20.88;;;14.65;;
55776;SDS011;54079;44.540;18.784;2022-12-18T13:41:00;25.08;;;17.25;;
55776;SDS011;54079;44.540;18.784;2022-12-18T13:46:00;25.88;;;16.42;;
55776;SDS011;54079;44.540;18.784;2022-12-18T13:48:27;23.27;;;15.93;;
55776;SDS011;54079;44.540;18.784;2022-12-18T13:53:50;22.95;;;15.77;;
55776;SDS011;54079;44.540;18.784;2022-12-18T13:56:21;21.33;;;14.40;;
55776;SDS011;54079;44.540;18.784;2022-12-18T14:01:55;27.52;;;17.52;;
55776;SDS011;54079;44.540;18.784;2022-12-18T14:06:50;29.25;;;18.55;;
55776;SDS011;54079;44.540;18.784;2022-12-18T14:09:25;27.70;;;17.97;;
55776;SDS011;54079;44.540;18.784;2022-12-18T14:11:53;26.45;;;16.63;;
55776;SDS011;54079;44.540;18.784;2022-12-18T14:14:43;26.85;;;17.05;;
55776;SDS011;54079;44.540;18.784;2022-12-18T14:17:12;26.30;;;17.13;;
55776;SDS011;54079;44.540;18.784;2022-12-18T14:19:46;29.27;;;18.92;;
55776;SDS011;54079;44.540;18.784;2022-12-18T14:22:18;28.20;;;19.10;;
55776;SDS011;54079;44.540;18.784;2022-12-18T14:24:46;27.38;;;17.70;;
55776;SDS011;54079;44.540;18.784;2022-12-18T14:27:29;29.50;;;19.30;;
55776;SDS011;54079;44.540;18.784;2022-12-18T14:29:55;29.50;;;18.15;;
55776;SDS011;54079;44.540;18.784;2022-12-18T14:32:21;32.65;;;19.45;;
55776;SDS011;54079;44.540;18.784;2022-12-18T14:34:51;29.95;;;19.50;;
55776;SDS011;54079;44.540;18.784;2022-12-18T14:37:23;30.13;;;19.20;;
55776;SDS011;54079;44.540;18.784;2022-12-18T14:39:57;25.07;;;16.83;;
55776;SDS011;54079;44.540;18.784;2022-12-18T14:42:25;29.08;;;19.50;;
55776;SDS011;54079;44.540;18.784;2022-12-18T14:47:56;28.17;;;17.58;;
55776;SDS011;54079;44.540;18.784;2022-12-18T14:50:23;29.65;;;18.08;;
55776;SDS011;54079;44.540;18.784;2022-12-18T14:52:49;26.92;;;17.50;;
55776;SDS011;54079;44.540;18.784;2022-12-18T14:55:18;28.58;;;18.50;;
55776;SDS011;54079;44.540;18.784;2022-12-18T14:57:49;29.77;;;19.15;;
55776;SDS011;54079;44.540;18.784;2022-12-18T15:00:18;28.83;;;18.63;;
55776;SDS011;54079;44.540;18.784;2022-12-18T15:02:48;28.58;;;19.25;;
55776;SDS011;54079;44.540;18.784;2022-12-18T15:05:19;32.85;;;21.17;;
55776;SDS011;54079;44.540;18.784;2022-12-18T15:07:56;28.95;;;20.17;;
55776;SDS011;54079;44.540;18.784;2022-12-18T15:10:24;28.40;;;18.17;;
55776;SDS011;54079;44.540;18.784;2022-12-18T15:18:01;26.25;;;16.80;;
55776;SDS011;54079;44.540;18.784;2022-12-18T15:20:27;30.77;;;19.23;;
55776;SDS011;54079;44.540;18.784;2022-12-18T15:22:56;28.58;;;18.92;;
55776;SDS011;54079;44.540;18.784;2022-12-18T15:25:25;29.83;;;18.67;;
55776;SDS011;54079;44.540;18.784;2022-12-18T15:27:53;30.85;;;19.55;;
55776;SDS011;54079;44.540;18.784;2022-12-18T15:30:20;35.47;;;21.25;;
55776;SDS011;54079;44.540;18.784;2022-12-18T15:32:47;33.47;;;21.42;;
55776;SDS011;54079;44.540;18.784;2022-12-18T15:35:15;28.85;;;18.00;;
55776;SDS011;54079;44.540;18.784;2022-12-18T15:37:43;35.22;;;22.02;;
55776;SDS011;54079;44.540;18.784;2022-12-18T15:40:20;32.15;;;19.25;;
55776;SDS011;54079;44.540;18.784;2022-12-18T15:42:47;32.22;;;20.10;;
55776;SDS011;54079;44.540;18.784;2022-12-18T15:45:34;43.25;;;24.45;;
55776;SDS011;54079;44.540;18.784;2022-12-18T15:48:00;43.35;;;25.40;;
55776;SDS011;54079;44.540;18.784;2022-12-18T15:50:26;39.00;;;22.77;;
55776;SDS011;54079;44.540;18.784;2022-12-18T15:52:52;36.45;;;21.42;;
55776;SDS011;54079;44.540;18.784;2022-12-18T15:55:21;38.95;;;23.75;;
55776;SDS011;54079;44.540;18.784;2022-12-18T15:58:06;45.22;;;26.20;;
55776;SDS011;54079;44.540;18.784;2022-12-18T16:00:33;36.50;;;21.98;;
55776;SDS011;54079;44.540;18.784;2022-12-18T16:03:01;38.83;;;21.55;;
55776;SDS011;54079;44.540;18.784;2022-12-18T16:05:28;37.67;;;22.48;;
55776;SDS011;54079;44.540;18.784;2022-12-18T16:07:54;37.63;;;21.70;;
55776;SDS011;54079;44.540;18.784;2022-12-18T16:10:20;32.80;;;19.85;;
55776;SDS011;54079;44.540;18.784;2022-12-18T16:12:46;32.63;;;20.40;;
55776;SDS011;54079;44.540;18.784;2022-12-18T16:15:13;32.90;;;21.90;;
55776;SDS011;54079;44.540;18.784;2022-12-18T16:17:41;36.95;;;23.17;;
55776;SDS011;54079;44.540;18.784;2022-12-18T16:20:18;33.92;;;22.10;;
55776;SDS011;54079;44.540;18.784;2022-12-18T16:22:46;35.60;;;21.73;;
55776;SDS011;54079;44.540;18.784;2022-12-18T16:25:17;41.58;;;23.83;;
55776;SDS011;54079;44.540;18.784;2022-12-18T16:30:14;40.70;;;22.98;;
55776;SDS011;54079;44.540;18.784;2022-12-18T16:32:41;34.25;;;21.88;;
55776;SDS011;54079;44.540;18.784;2022-12-18T16:35:09;36.72;;;22.65;;